sensor_id;sensor_type;location;lat;lon;timestamp;P1;durP1;ratioP1;P2;durP2;ratioP2
55718;SDS011;41623;46.104;19.656;2022-11-14T00:00:43;11.38;;;5.72;;
55718;SDS011;41623;46.104;19.656;2022-11-14T00:03:10;11.98;;;6.22;;
55718;SDS011;41623;46.104;19.656;2022-11-14T00:05:40;20.05;;;6.40;;
55718;SDS011;41623;46.104;19.656;2022-11-14T00:08:13;10.15;;;4.53;;
55718;SDS011;41623;46.104;19.656;2022-11-14T00:10:39;13.90;;;6.63;;
55718;SDS011;41623;46.104;19.656;2022-11-14T00:13:05;15.10;;;6.85;;
55718;SDS011;41623;46.104;19.656;2022-11-14T00:15:31;14.50;;;6.32;;
55718;SDS011;41623;46.104;19.656;2022-11-14T00:17:57;13.07;;;6.00;;
55718;SDS011;41623;46.104;19.656;2022-11-14T00:20:23;10.35;;;6.07;;
55718;SDS011;41623;46.104;19.656;2022-11-14T00:22:49;12.02;;;6.47;;
55718;SDS011;41623;46.104;19.656;2022-11-14T00:25:15;13.23;;;5.53;;
55718;SDS011;41623;46.104;19.656;2022-11-14T00:27:41;9.20;;;5.13;;
55718;SDS011;41623;46.104;19.656;2022-11-14T00:30:08;13.75;;;5.22;;
55718;SDS011;41623;46.104;19.656;2022-11-14T00:32:34;10.85;;;5.57;;
55718;SDS011;41623;46.104;19.656;2022-11-14T00:35:00;8.07;;;4.30;;
55718;SDS011;41623;46.104;19.656;2022-11-14T00:37:26;7.38;;;3.72;;
55718;SDS011;41623;46.104;19.656;2022-11-14T00:39:52;8.27;;;4.88;;
55718;SDS011;41623;46.104;19.656;2022-11-14T00:42:18;7.90;;;4.75;;
55718;SDS011;41623;46.104;19.656;2022-11-14T00:44:44;10.07;;;5.65;;
55718;SDS011;41623;46.104;19.656;2022-11-14T00:47:10;9.32;;;3.63;;
55718;SDS011;41623;46.104;19.656;2022-11-14T00:49:36;6.68;;;3.83;;
55718;SDS011;41623;46.104;19.656;2022-11-14T00:52:02;10.38;;;4.07;;
55718;SDS011;41623;46.104;19.656;2022-11-14T00:54:28;13.57;;;5.97;;
55718;SDS011;41623;46.104;19.656;2022-11-14T00:56:54;12.15;;;4.90;;
55718;SDS011;41623;46.104;19.656;2022-11-14T00:59:20;9.95;;;4.53;;
55718;SDS011;41623;46.104;19.656;2022-11-14T01:01:47;7.85;;;4.55;;
55718;SDS011;41623;46.104;19.656;2022-11-14T01:04:13;5.90;;;3.47;;
55718;SDS011;41623;46.104;19.656;2022-11-14T01:06:39;7.30;;;4.03;;
55718;SDS011;41623;46.104;19.656;2022-11-14T01:09:05;6.38;;;3.42;;
55718;SDS011;41623;46.104;19.656;2022-11-14T01:11:31;7.70;;;3.28;;
55718;SDS011;41623;46.104;19.656;2022-11-14T01:13:57;6.72;;;3.85;;
55718;SDS011;41623;46.104;19.656;2022-11-14T01:16:23;6.43;;;2.65;;
55718;SDS011;41623;46.104;19.656;2022-11-14T01:18:49;6.97;;;4.28;;
55718;SDS011;41623;46.104;19.656;2022-11-14T01:21:15;11.00;;;4.93;;
55718;SDS011;41623;46.104;19.656;2022-11-14T01:23:41;8.70;;;4.78;;
55718;SDS011;41623;46.104;19.656;2022-11-14T01:26:08;11.05;;;4.90;;
55718;SDS011;41623;46.104;19.656;2022-11-14T01:28:35;17.65;;;4.43;;
55718;SDS011;41623;46.104;19.656;2022-11-14T01:31:15;5.43;;;3.13;;
55718;SDS011;41623;46.104;19.656;2022-11-14T01:33:41;16.17;;;5.53;;
55718;SDS011;41623;46.104;19.656;2022-11-14T01:36:08;9.55;;;5.18;;
55718;SDS011;41623;46.104;19.656;2022-11-14T01:38:34;14.13;;;5.70;;
55718;SDS011;41623;46.104;19.656;2022-11-14T01:41:01;7.88;;;4.68;;
55718;SDS011;41623;46.104;19.656;2022-11-14T01:43:28;15.75;;;5.43;;
55718;SDS011;41623;46.104;19.656;2022-11-14T01:46:05;5.50;;;3.15;;
55718;SDS011;41623;46.104;19.656;2022-11-14T01:51:02;4.10;;;2.53;;
55718;SDS011;41623;46.104;19.656;2022-11-14T01:53:30;5.18;;;2.85;;
55718;SDS011;41623;46.104;19.656;2022-11-14T01:55:57;9.55;;;4.45;;
55718;SDS011;41623;46.104;19.656;2022-11-14T01:58:24;14.30;;;4.95;;
55718;SDS011;41623;46.104;19.656;2022-11-14T02:00:50;6.80;;;3.83;;
55718;SDS011;41623;46.104;19.656;2022-11-14T02:03:16;4.25;;;2.78;;
55718;SDS011;41623;46.104;19.656;2022-11-14T02:05:44;7.30;;;3.63;;
55718;SDS011;41623;46.104;19.656;2022-11-14T02:08:12;6.57;;;3.60;;
55718;SDS011;41623;46.104;19.656;2022-11-14T02:10:39;6.80;;;3.55;;
55718;SDS011;41623;46.104;19.656;2022-11-14T02:13:05;11.77;;;3.67;;
55718;SDS011;41623;46.104;19.656;2022-11-14T02:15:31;8.55;;;4.38;;
55718;SDS011;41623;46.104;19.656;2022-11-14T02:17:57;9.30;;;4.78;;
55718;SDS011;41623;46.104;19.656;2022-11-14T02:20:25;13.57;;;5.05;;
55718;SDS011;41623;46.104;19.656;2022-11-14T02:22:56;9.40;;;5.72;;
55718;SDS011;41623;46.104;19.656;2022-11-14T02:25:22;7.65;;;3.58;;
55718;SDS011;41623;46.104;19.656;2022-11-14T02:27:49;10.27;;;4.40;;
55718;SDS011;41623;46.104;19.656;2022-11-14T02:30:20;5.75;;;2.72;;
55718;SDS011;41623;46.104;19.656;2022-11-14T02:32:46;4.97;;;1.95;;
55718;SDS011;41623;46.104;19.656;2022-11-14T02:35:12;4.90;;;2.60;;
55718;SDS011;41623;46.104;19.656;2022-11-14T02:37:38;7.57;;;3.65;;
55718;SDS011;41623;46.104;19.656;2022-11-14T02:40:05;8.82;;;4.05;;
55718;SDS011;41623;46.104;19.656;2022-11-14T02:42:31;6.75;;;3.83;;
55718;SDS011;41623;46.104;19.656;2022-11-14T02:44:57;4.88;;;2.97;;
55718;SDS011;41623;46.104;19.656;2022-11-14T02:47:23;11.02;;;4.90;;
55718;SDS011;41623;46.104;19.656;2022-11-14T02:49:49;7.90;;;4.07;;
55718;SDS011;41623;46.104;19.656;2022-11-14T02:52:16;4.20;;;2.67;;
55718;SDS011;41623;46.104;19.656;2022-11-14T02:54:42;9.13;;;4.03;;
55718;SDS011;41623;46.104;19.656;2022-11-14T02:57:08;5.68;;;3.40;;
55718;SDS011;41623;46.104;19.656;2022-11-14T02:59:34;8.70;;;3.42;;
55718;SDS011;41623;46.104;19.656;2022-11-14T03:02:00;7.28;;;2.58;;
55718;SDS011;41623;46.104;19.656;2022-11-14T03:04:26;9.55;;;3.15;;
55718;SDS011;41623;46.104;19.656;2022-11-14T03:06:52;13.00;;;4.10;;
55718;SDS011;41623;46.104;19.656;2022-11-14T03:09:18;6.10;;;3.75;;
55718;SDS011;41623;46.104;19.656;2022-11-14T03:11:44;6.72;;;2.85;;
55718;SDS011;41623;46.104;19.656;2022-11-14T03:14:10;4.80;;;3.58;;
55718;SDS011;41623;46.104;19.656;2022-11-14T03:16:36;7.43;;;4.32;;
55718;SDS011;41623;46.104;19.656;2022-11-14T03:19:03;4.00;;;2.65;;
55718;SDS011;41623;46.104;19.656;2022-11-14T03:21:29;8.38;;;4.30;;
55718;SDS011;41623;46.104;19.656;2022-11-14T03:23:55;6.25;;;3.03;;
55718;SDS011;41623;46.104;19.656;2022-11-14T03:26:21;7.45;;;3.60;;
55718;SDS011;41623;46.104;19.656;2022-11-14T03:28:47;5.55;;;3.50;;
55718;SDS011;41623;46.104;19.656;2022-11-14T03:31:13;7.43;;;3.78;;
55718;SDS011;41623;46.104;19.656;2022-11-14T03:33:39;4.97;;;3.65;;
55718;SDS011;41623;46.104;19.656;2022-11-14T03:36:06;5.45;;;3.20;;
55718;SDS011;41623;46.104;19.656;2022-11-14T03:38:32;6.95;;;3.13;;
55718;SDS011;41623;46.104;19.656;2022-11-14T03:40:59;2.75;;;1.92;;
55718;SDS011;41623;46.104;19.656;2022-11-14T03:43:27;3.72;;;2.75;;
55718;SDS011;41623;46.104;19.656;2022-11-14T03:45:56;2.78;;;2.03;;
55718;SDS011;41623;46.104;19.656;2022-11-14T03:48:23;4.80;;;3.08;;
55718;SDS011;41623;46.104;19.656;2022-11-14T03:50:49;6.30;;;3.30;;
55718;SDS011;41623;46.104;19.656;2022-11-14T03:53:15;7.72;;;4.63;;
55718;SDS011;41623;46.104;19.656;2022-11-14T03:55:44;8.43;;;4.10;;
55718;SDS011;41623;46.104;19.656;2022-11-14T03:58:10;5.15;;;3.33;;
55718;SDS011;41623;46.104;19.656;2022-11-14T04:00:36;5.43;;;3.85;;
55718;SDS011;41623;46.104;19.656;2022-11-14T04:03:02;7.93;;;4.13;;
55718;SDS011;41623;46.104;19.656;2022-11-14T04:05:28;7.68;;;4.28;;
55718;SDS011;41623;46.104;19.656;2022-11-14T04:07:55;8.38;;;4.20;;
55718;SDS011;41623;46.104;19.656;2022-11-14T04:10:21;5.22;;;4.25;;
55718;SDS011;41623;46.104;19.656;2022-11-14T04:12:47;12.40;;;4.18;;
55718;SDS011;41623;46.104;19.656;2022-11-14T04:15:14;4.35;;;3.17;;
55718;SDS011;41623;46.104;19.656;2022-11-14T04:17:40;9.20;;;3.25;;
55718;SDS011;41623;46.104;19.656;2022-11-14T04:20:06;6.10;;;3.17;;
55718;SDS011;41623;46.104;19.656;2022-11-14T04:22:32;8.00;;;3.08;;
55718;SDS011;41623;46.104;19.656;2022-11-14T04:24:58;8.10;;;3.97;;
55718;SDS011;41623;46.104;19.656;2022-11-14T04:27:24;7.32;;;3.85;;
55718;SDS011;41623;46.104;19.656;2022-11-14T04:29:50;5.80;;;2.83;;
55718;SDS011;41623;46.104;19.656;2022-11-14T04:32:16;6.53;;;3.63;;
55718;SDS011;41623;46.104;19.656;2022-11-14T04:34:42;5.57;;;3.38;;
55718;SDS011;41623;46.104;19.656;2022-11-14T04:37:09;9.57;;;3.85;;
55718;SDS011;41623;46.104;19.656;2022-11-14T04:39:35;7.03;;;4.45;;
55718;SDS011;41623;46.104;19.656;2022-11-14T04:42:01;6.82;;;3.25;;
55718;SDS011;41623;46.104;19.656;2022-11-14T04:44:27;6.97;;;4.38;;
55718;SDS011;41623;46.104;19.656;2022-11-14T04:46:53;7.78;;;3.47;;
55718;SDS011;41623;46.104;19.656;2022-11-14T04:49:19;9.43;;;5.53;;
55718;SDS011;41623;46.104;19.656;2022-11-14T04:51:45;5.90;;;3.35;;
55718;SDS011;41623;46.104;19.656;2022-11-14T04:54:11;10.55;;;4.22;;
55718;SDS011;41623;46.104;19.656;2022-11-14T04:56:37;8.75;;;5.22;;
55718;SDS011;41623;46.104;19.656;2022-11-14T04:59:04;10.82;;;4.57;;
55718;SDS011;41623;46.104;19.656;2022-11-14T05:01:30;7.78;;;5.00;;
55718;SDS011;41623;46.104;19.656;2022-11-14T05:03:56;7.10;;;3.38;;
55718;SDS011;41623;46.104;19.656;2022-11-14T05:06:22;9.95;;;5.32;;
55718;SDS011;41623;46.104;19.656;2022-11-14T05:08:48;8.43;;;4.00;;
55718;SDS011;41623;46.104;19.656;2022-11-14T05:11:15;9.18;;;5.07;;
55718;SDS011;41623;46.104;19.656;2022-11-14T05:13:41;9.75;;;4.60;;
55718;SDS011;41623;46.104;19.656;2022-11-14T05:16:07;7.13;;;4.75;;
55718;SDS011;41623;46.104;19.656;2022-11-14T05:18:33;7.03;;;4.85;;
55718;SDS011;41623;46.104;19.656;2022-11-14T05:20:59;11.10;;;5.10;;
55718;SDS011;41623;46.104;19.656;2022-11-14T05:23:26;12.27;;;4.60;;
55718;SDS011;41623;46.104;19.656;2022-11-14T05:28:24;17.77;;;5.97;;
55718;SDS011;41623;46.104;19.656;2022-11-14T05:30:50;11.90;;;4.90;;
55718;SDS011;41623;46.104;19.656;2022-11-14T05:33:16;10.20;;;5.57;;
55718;SDS011;41623;46.104;19.656;2022-11-14T05:35:42;18.67;;;6.05;;
55718;SDS011;41623;46.104;19.656;2022-11-14T05:38:08;11.50;;;5.55;;
55718;SDS011;41623;46.104;19.656;2022-11-14T05:40:35;8.45;;;5.32;;
55718;SDS011;41623;46.104;19.656;2022-11-14T05:43:02;6.05;;;3.97;;
55718;SDS011;41623;46.104;19.656;2022-11-14T05:45:29;8.40;;;4.30;;
55718;SDS011;41623;46.104;19.656;2022-11-14T05:47:55;6.80;;;4.82;;
55718;SDS011;41623;46.104;19.656;2022-11-14T05:50:21;6.68;;;4.38;;
55718;SDS011;41623;46.104;19.656;2022-11-14T05:52:47;11.63;;;4.63;;
55718;SDS011;41623;46.104;19.656;2022-11-14T05:55:13;7.82;;;4.35;;
55718;SDS011;41623;46.104;19.656;2022-11-14T05:57:39;6.90;;;4.45;;
55718;SDS011;41623;46.104;19.656;2022-11-14T06:00:05;7.93;;;3.88;;
55718;SDS011;41623;46.104;19.656;2022-11-14T06:02:33;23.70;;;12.75;;
55718;SDS011;41623;46.104;19.656;2022-11-14T06:04:59;7.53;;;4.47;;
55718;SDS011;41623;46.104;19.656;2022-11-14T06:07:25;10.00;;;3.75;;
55718;SDS011;41623;46.104;19.656;2022-11-14T06:09:51;11.75;;;4.10;;
55718;SDS011;41623;46.104;19.656;2022-11-14T06:12:17;9.48;;;4.15;;
55718;SDS011;41623;46.104;19.656;2022-11-14T06:14:43;8.15;;;3.78;;
55718;SDS011;41623;46.104;19.656;2022-11-14T06:17:09;11.85;;;4.45;;
55718;SDS011;41623;46.104;19.656;2022-11-14T06:19:35;8.00;;;4.60;;
55718;SDS011;41623;46.104;19.656;2022-11-14T06:22:01;8.27;;;4.75;;
55718;SDS011;41623;46.104;19.656;2022-11-14T06:24:28;8.00;;;4.55;;
55718;SDS011;41623;46.104;19.656;2022-11-14T06:26:54;8.55;;;5.05;;
55718;SDS011;41623;46.104;19.656;2022-11-14T06:29:20;6.25;;;4.07;;
55718;SDS011;41623;46.104;19.656;2022-11-14T06:31:46;12.48;;;4.15;;
55718;SDS011;41623;46.104;19.656;2022-11-14T06:34:12;6.90;;;4.30;;
55718;SDS011;41623;46.104;19.656;2022-11-14T06:36:38;11.20;;;5.38;;
55718;SDS011;41623;46.104;19.656;2022-11-14T06:39:04;9.10;;;4.53;;
55718;SDS011;41623;46.104;19.656;2022-11-14T06:41:30;14.75;;;4.97;;
55718;SDS011;41623;46.104;19.656;2022-11-14T06:43:56;11.30;;;5.15;;
55718;SDS011;41623;46.104;19.656;2022-11-14T06:46:22;11.10;;;5.03;;
55718;SDS011;41623;46.104;19.656;2022-11-14T06:48:48;16.80;;;6.50;;
55718;SDS011;41623;46.104;19.656;2022-11-14T06:51:16;12.25;;;4.65;;
55718;SDS011;41623;46.104;19.656;2022-11-14T06:53:43;7.47;;;3.20;;
55718;SDS011;41623;46.104;19.656;2022-11-14T06:56:10;6.80;;;4.50;;
55718;SDS011;41623;46.104;19.656;2022-11-14T06:58:38;10.30;;;4.63;;
55718;SDS011;41623;46.104;19.656;2022-11-14T07:01:05;10.20;;;5.45;;
55718;SDS011;41623;46.104;19.656;2022-11-14T07:03:32;7.68;;;4.20;;
55718;SDS011;41623;46.104;19.656;2022-11-14T07:06:01;11.10;;;4.70;;
55718;SDS011;41623;46.104;19.656;2022-11-14T07:08:27;7.38;;;3.78;;
55718;SDS011;41623;46.104;19.656;2022-11-14T07:10:53;5.25;;;3.80;;
55718;SDS011;41623;46.104;19.656;2022-11-14T07:13:19;8.52;;;4.20;;
55718;SDS011;41623;46.104;19.656;2022-11-14T07:15:49;10.32;;;3.65;;
55718;SDS011;41623;46.104;19.656;2022-11-14T07:18:15;6.53;;;3.50;;
55718;SDS011;41623;46.104;19.656;2022-11-14T07:20:41;5.97;;;3.22;;
55718;SDS011;41623;46.104;19.656;2022-11-14T07:23:07;8.05;;;3.75;;
55718;SDS011;41623;46.104;19.656;2022-11-14T07:25:33;7.22;;;4.35;;
55718;SDS011;41623;46.104;19.656;2022-11-14T07:27:59;8.15;;;3.05;;
55718;SDS011;41623;46.104;19.656;2022-11-14T07:30:25;11.77;;;4.63;;
55718;SDS011;41623;46.104;19.656;2022-11-14T07:32:55;8.02;;;4.47;;
55718;SDS011;41623;46.104;19.656;2022-11-14T07:35:21;4.25;;;3.28;;
55718;SDS011;41623;46.104;19.656;2022-11-14T07:37:47;7.50;;;5.10;;
55718;SDS011;41623;46.104;19.656;2022-11-14T07:40:14;6.75;;;4.60;;
55718;SDS011;41623;46.104;19.656;2022-11-14T07:42:40;7.95;;;4.07;;
55718;SDS011;41623;46.104;19.656;2022-11-14T07:45:06;9.68;;;4.18;;
55718;SDS011;41623;46.104;19.656;2022-11-14T07:47:33;10.38;;;3.90;;
55718;SDS011;41623;46.104;19.656;2022-11-14T07:49:59;9.30;;;3.75;;
55718;SDS011;41623;46.104;19.656;2022-11-14T07:52:25;7.32;;;4.22;;
55718;SDS011;41623;46.104;19.656;2022-11-14T07:54:51;14.70;;;3.88;;
55718;SDS011;41623;46.104;19.656;2022-11-14T07:57:17;7.70;;;3.70;;
55718;SDS011;41623;46.104;19.656;2022-11-14T07:59:43;6.28;;;2.58;;
55718;SDS011;41623;46.104;19.656;2022-11-14T08:02:10;4.47;;;2.80;;
55718;SDS011;41623;46.104;19.656;2022-11-14T08:04:38;4.82;;;3.30;;
55718;SDS011;41623;46.104;19.656;2022-11-14T08:07:04;3.70;;;2.60;;
55718;SDS011;41623;46.104;19.656;2022-11-14T08:09:30;9.07;;;3.92;;
55718;SDS011;41623;46.104;19.656;2022-11-14T08:11:56;11.20;;;4.53;;
55718;SDS011;41623;46.104;19.656;2022-11-14T08:14:22;7.53;;;4.15;;
55718;SDS011;41623;46.104;19.656;2022-11-14T08:16:49;8.18;;;3.92;;
55718;SDS011;41623;46.104;19.656;2022-11-14T08:19:15;9.27;;;4.40;;
55718;SDS011;41623;46.104;19.656;2022-11-14T08:21:41;8.65;;;4.82;;
55718;SDS011;41623;46.104;19.656;2022-11-14T08:24:08;8.70;;;4.60;;
55718;SDS011;41623;46.104;19.656;2022-11-14T08:26:34;8.95;;;4.45;;
55718;SDS011;41623;46.104;19.656;2022-11-14T08:29:00;9.50;;;4.82;;
55718;SDS011;41623;46.104;19.656;2022-11-14T08:31:26;9.18;;;4.93;;
55718;SDS011;41623;46.104;19.656;2022-11-14T08:33:52;11.93;;;4.90;;
55718;SDS011;41623;46.104;19.656;2022-11-14T08:36:18;6.40;;;3.92;;
55718;SDS011;41623;46.104;19.656;2022-11-14T08:38:44;10.88;;;5.13;;
55718;SDS011;41623;46.104;19.656;2022-11-14T08:41:10;10.82;;;5.22;;
55718;SDS011;41623;46.104;19.656;2022-11-14T08:43:36;7.32;;;4.85;;
55718;SDS011;41623;46.104;19.656;2022-11-14T08:46:03;7.57;;;4.57;;
55718;SDS011;41623;46.104;19.656;2022-11-14T08:48:30;5.57;;;3.60;;
55718;SDS011;41623;46.104;19.656;2022-11-14T08:50:57;7.57;;;4.00;;
55718;SDS011;41623;46.104;19.656;2022-11-14T08:53:23;7.65;;;3.40;;
55718;SDS011;41623;46.104;19.656;2022-11-14T08:55:49;7.05;;;2.85;;
55718;SDS011;41623;46.104;19.656;2022-11-14T08:58:15;5.85;;;3.35;;
55718;SDS011;41623;46.104;19.656;2022-11-14T09:00:41;6.60;;;4.10;;
55718;SDS011;41623;46.104;19.656;2022-11-14T09:03:07;13.20;;;4.07;;
55718;SDS011;41623;46.104;19.656;2022-11-14T09:05:34;8.07;;;4.57;;
55718;SDS011;41623;46.104;19.656;2022-11-14T09:08:00;6.00;;;3.95;;
55718;SDS011;41623;46.104;19.656;2022-11-14T09:10:26;8.10;;;4.35;;
55718;SDS011;41623;46.104;19.656;2022-11-14T09:12:55;7.72;;;4.15;;
55718;SDS011;41623;46.104;19.656;2022-11-14T09:15:22;6.65;;;4.55;;
55718;SDS011;41623;46.104;19.656;2022-11-14T09:17:51;11.85;;;5.60;;
55718;SDS011;41623;46.104;19.656;2022-11-14T09:20:17;8.75;;;4.43;;
55718;SDS011;41623;46.104;19.656;2022-11-14T09:22:43;9.23;;;4.20;;
55718;SDS011;41623;46.104;19.656;2022-11-14T09:25:10;6.30;;;4.05;;
55718;SDS011;41623;46.104;19.656;2022-11-14T09:27:36;10.60;;;4.60;;
55718;SDS011;41623;46.104;19.656;2022-11-14T09:30:02;8.00;;;4.35;;
55718;SDS011;41623;46.104;19.656;2022-11-14T09:32:28;3.00;;;2.17;;
55718;SDS011;41623;46.104;19.656;2022-11-14T09:34:54;3.90;;;2.53;;
55718;SDS011;41623;46.104;19.656;2022-11-14T09:37:20;9.02;;;3.63;;
55718;SDS011;41623;46.104;19.656;2022-11-14T09:39:46;13.10;;;5.05;;
55718;SDS011;41623;46.104;19.656;2022-11-14T09:44:57;7.93;;;4.40;;
55718;SDS011;41623;46.104;19.656;2022-11-14T09:47:30;8.13;;;4.53;;
55718;SDS011;41623;46.104;19.656;2022-11-14T09:50:00;9.63;;;3.92;;
55718;SDS011;41623;46.104;19.656;2022-11-14T09:52:37;9.75;;;4.30;;
55718;SDS011;41623;46.104;19.656;2022-11-14T09:55:18;13.00;;;6.32;;
55718;SDS011;41623;46.104;19.656;2022-11-14T09:57:46;8.88;;;3.75;;
55718;SDS011;41623;46.104;19.656;2022-11-14T10:00:16;6.03;;;4.03;;
55718;SDS011;41623;46.104;19.656;2022-11-14T10:10:33;7.07;;;3.63;;
55718;SDS011;41623;46.104;19.656;2022-11-14T10:20:56;8.38;;;4.07;;
55718;SDS011;41623;46.104;19.656;2022-11-14T10:23:36;9.38;;;3.58;;
55718;SDS011;41623;46.104;19.656;2022-11-14T10:26:23;4.28;;;2.85;;
55718;SDS011;41623;46.104;19.656;2022-11-14T10:31:30;9.00;;;4.15;;
55718;SDS011;41623;46.104;19.656;2022-11-14T10:34:01;5.60;;;2.95;;
55718;SDS011;41623;46.104;19.656;2022-11-14T10:39:09;6.50;;;3.70;;
55718;SDS011;41623;46.104;19.656;2022-11-14T10:41:36;6.60;;;3.65;;
55718;SDS011;41623;46.104;19.656;2022-11-14T10:44:03;11.60;;;4.57;;
55718;SDS011;41623;46.104;19.656;2022-11-14T10:46:37;5.32;;;3.40;;
55718;SDS011;41623;46.104;19.656;2022-11-14T10:52:08;11.00;;;3.67;;
55718;SDS011;41623;46.104;19.656;2022-11-14T10:54:38;7.20;;;4.47;;
55718;SDS011;41623;46.104;19.656;2022-11-14T10:57:19;6.72;;;3.67;;
55718;SDS011;41623;46.104;19.656;2022-11-14T10:59:46;4.03;;;2.42;;
55718;SDS011;41623;46.104;19.656;2022-11-14T11:02:12;5.93;;;4.03;;
55718;SDS011;41623;46.104;19.656;2022-11-14T11:04:39;6.93;;;3.80;;
55718;SDS011;41623;46.104;19.656;2022-11-14T11:09:32;3.17;;;2.47;;
55718;SDS011;41623;46.104;19.656;2022-11-14T11:12:18;6.82;;;3.25;;
55718;SDS011;41623;46.104;19.656;2022-11-14T11:14:45;5.95;;;2.85;;
55718;SDS011;41623;46.104;19.656;2022-11-14T11:17:19;8.25;;;4.05;;
55718;SDS011;41623;46.104;19.656;2022-11-14T11:24:47;5.68;;;3.67;;
55718;SDS011;41623;46.104;19.656;2022-11-14T11:27:24;6.38;;;3.47;;
55718;SDS011;41623;46.104;19.656;2022-11-14T11:32:32;11.85;;;3.80;;
55718;SDS011;41623;46.104;19.656;2022-11-14T11:34:59;6.80;;;3.70;;
55718;SDS011;41623;46.104;19.656;2022-11-14T11:37:34;6.07;;;3.22;;
55718;SDS011;41623;46.104;19.656;2022-11-14T11:40:04;3.88;;;2.50;;
55718;SDS011;41623;46.104;19.656;2022-11-14T11:45:11;4.93;;;2.83;;
55718;SDS011;41623;46.104;19.656;2022-11-14T11:47:41;7.68;;;2.97;;
55718;SDS011;41623;46.104;19.656;2022-11-14T11:50:13;10.07;;;4.47;;
55718;SDS011;41623;46.104;19.656;2022-11-14T11:53:03;7.78;;;3.63;;
55718;SDS011;41623;46.104;19.656;2022-11-14T11:55:33;5.20;;;3.25;;
55718;SDS011;41623;46.104;19.656;2022-11-14T12:00:28;7.15;;;4.45;;
55718;SDS011;41623;46.104;19.656;2022-11-14T12:02:54;6.55;;;3.83;;
55718;SDS011;41623;46.104;19.656;2022-11-14T12:05:30;6.90;;;3.30;;
55718;SDS011;41623;46.104;19.656;2022-11-14T12:08:00;6.82;;;4.03;;
55718;SDS011;41623;46.104;19.656;2022-11-14T12:10:29;6.68;;;3.60;;
55718;SDS011;41623;46.104;19.656;2022-11-14T12:15:34;3.55;;;2.35;;
55718;SDS011;41623;46.104;19.656;2022-11-14T12:18:05;4.32;;;3.05;;
55718;SDS011;41623;46.104;19.656;2022-11-14T12:25:59;7.38;;;3.65;;
55718;SDS011;41623;46.104;19.656;2022-11-14T12:31:00;5.95;;;3.10;;
55718;SDS011;41623;46.104;19.656;2022-11-14T12:33:38;5.00;;;2.78;;
55718;SDS011;41623;46.104;19.656;2022-11-14T12:36:07;9.68;;;3.80;;
55718;SDS011;41623;46.104;19.656;2022-11-14T12:38:47;5.40;;;3.22;;
55718;SDS011;41623;46.104;19.656;2022-11-14T12:41:24;10.30;;;3.15;;
55718;SDS011;41623;46.104;19.656;2022-11-14T12:43:50;4.97;;;2.33;;
55718;SDS011;41623;46.104;19.656;2022-11-14T12:46:16;3.17;;;1.98;;
55718;SDS011;41623;46.104;19.656;2022-11-14T12:48:43;5.20;;;3.10;;
55718;SDS011;41623;46.104;19.656;2022-11-14T12:53:54;9.57;;;3.95;;
55718;SDS011;41623;46.104;19.656;2022-11-14T13:06:26;7.15;;;3.03;;
55718;SDS011;41623;46.104;19.656;2022-11-14T13:09:38;9.15;;;3.55;;
55718;SDS011;41623;46.104;19.656;2022-11-14T13:11:45;6.47;;;3.63;;
55718;SDS011;41623;46.104;19.656;2022-11-14T13:14:30;9.10;;;3.60;;
55718;SDS011;41623;46.104;19.656;2022-11-14T13:20:00;7.95;;;3.85;;
55718;SDS011;41623;46.104;19.656;2022-11-14T13:22:46;4.05;;;2.15;;
55718;SDS011;41623;46.104;19.656;2022-11-14T13:25:16;6.60;;;3.33;;
55718;SDS011;41623;46.104;19.656;2022-11-14T13:27:43;5.63;;;3.70;;
55718;SDS011;41623;46.104;19.656;2022-11-14T13:30:09;5.03;;;2.55;;
55718;SDS011;41623;46.104;19.656;2022-11-14T13:40:15;5.82;;;2.72;;
55718;SDS011;41623;46.104;19.656;2022-11-14T13:45:36;5.15;;;3.28;;
55718;SDS011;41623;46.104;19.656;2022-11-14T13:50:38;7.40;;;3.35;;
55718;SDS011;41623;46.104;19.656;2022-11-14T13:53:21;7.65;;;3.42;;
55718;SDS011;41623;46.104;19.656;2022-11-14T14:00:56;5.93;;;3.75;;
55718;SDS011;41623;46.104;19.656;2022-11-14T14:09:18;9.25;;;4.63;;
55718;SDS011;41623;46.104;19.656;2022-11-14T14:11:27;8.68;;;3.75;;
55718;SDS011;41623;46.104;19.656;2022-11-14T14:21:33;11.95;;;4.60;;
55718;SDS011;41623;46.104;19.656;2022-11-14T14:32:14;12.45;;;4.82;;
55718;SDS011;41623;46.104;19.656;2022-11-14T14:34:40;14.43;;;5.60;;
55718;SDS011;41623;46.104;19.656;2022-11-14T14:37:20;8.63;;;4.05;;
55718;SDS011;41623;46.104;19.656;2022-11-14T14:39:57;5.80;;;3.55;;
55718;SDS011;41623;46.104;19.656;2022-11-14T14:42:24;8.07;;;4.82;;
55718;SDS011;41623;46.104;19.656;2022-11-14T14:44:50;15.05;;;5.22;;
55718;SDS011;41623;46.104;19.656;2022-11-14T14:47:38;7.63;;;3.88;;
55718;SDS011;41623;46.104;19.656;2022-11-14T14:50:04;24.15;;;4.32;;
55718;SDS011;41623;46.104;19.656;2022-11-14T14:52:35;9.25;;;5.03;;
55718;SDS011;41623;46.104;19.656;2022-11-14T14:55:01;8.98;;;5.05;;
55718;SDS011;41623;46.104;19.656;2022-11-14T14:57:28;12.75;;;5.63;;
55718;SDS011;41623;46.104;19.656;2022-11-14T14:59:58;14.20;;;6.22;;
55718;SDS011;41623;46.104;19.656;2022-11-14T15:02:24;10.90;;;4.45;;
55718;SDS011;41623;46.104;19.656;2022-11-14T15:04:50;9.80;;;5.75;;
55718;SDS011;41623;46.104;19.656;2022-11-14T15:07:20;13.82;;;5.70;;
55718;SDS011;41623;46.104;19.656;2022-11-14T15:09:51;9.93;;;5.93;;
55718;SDS011;41623;46.104;19.656;2022-11-14T15:12:17;11.07;;;6.45;;
55718;SDS011;41623;46.104;19.656;2022-11-14T15:14:43;17.95;;;6.88;;
55718;SDS011;41623;46.104;19.656;2022-11-14T15:17:10;16.52;;;6.22;;
55718;SDS011;41623;46.104;19.656;2022-11-14T15:19:38;11.88;;;5.35;;
55718;SDS011;41623;46.104;19.656;2022-11-14T15:24:30;14.15;;;5.80;;
55718;SDS011;41623;46.104;19.656;2022-11-14T15:26:57;10.38;;;4.35;;
55718;SDS011;41623;46.104;19.656;2022-11-14T15:29:24;18.77;;;7.75;;
55718;SDS011;41623;46.104;19.656;2022-11-14T15:31:54;18.27;;;8.10;;
55718;SDS011;41623;46.104;19.656;2022-11-14T15:39:38;15.73;;;7.15;;
55718;SDS011;41623;46.104;19.656;2022-11-14T15:42:15;18.48;;;7.15;;
55718;SDS011;41623;46.104;19.656;2022-11-14T15:44:46;20.13;;;7.47;;
55718;SDS011;41623;46.104;19.656;2022-11-14T15:47:26;18.83;;;7.05;;
55718;SDS011;41623;46.104;19.656;2022-11-14T15:49:56;18.33;;;6.05;;
55718;SDS011;41623;46.104;19.656;2022-11-14T15:52:24;14.68;;;6.30;;
55718;SDS011;41623;46.104;19.656;2022-11-14T15:54:51;12.23;;;6.00;;
55718;SDS011;41623;46.104;19.656;2022-11-14T15:57:17;26.08;;;7.97;;
55718;SDS011;41623;46.104;19.656;2022-11-14T15:59:43;26.38;;;8.00;;
55718;SDS011;41623;46.104;19.656;2022-11-14T16:02:43;14.15;;;7.20;;
55718;SDS011;41623;46.104;19.656;2022-11-14T16:05:02;13.00;;;5.72;;
55718;SDS011;41623;46.104;19.656;2022-11-14T16:07:29;17.83;;;8.85;;
55718;SDS011;41623;46.104;19.656;2022-11-14T16:09:55;16.42;;;6.72;;
55718;SDS011;41623;46.104;19.656;2022-11-14T16:12:21;19.50;;;9.13;;
55718;SDS011;41623;46.104;19.656;2022-11-14T16:14:47;14.85;;;8.02;;
55718;SDS011;41623;46.104;19.656;2022-11-14T16:17:14;18.30;;;7.93;;
55718;SDS011;41623;46.104;19.656;2022-11-14T16:19:40;19.02;;;8.32;;
55718;SDS011;41623;46.104;19.656;2022-11-14T16:22:14;16.48;;;7.50;;
55718;SDS011;41623;46.104;19.656;2022-11-14T16:24:41;12.43;;;7.68;;
55718;SDS011;41623;46.104;19.656;2022-11-14T16:27:07;30.45;;;9.38;;
55718;SDS011;41623;46.104;19.656;2022-11-14T16:29:33;18.70;;;8.00;;
55718;SDS011;41623;46.104;19.656;2022-11-14T16:32:00;18.83;;;8.73;;
55718;SDS011;41623;46.104;19.656;2022-11-14T16:34:27;20.42;;;8.30;;